Time;durP1;ratioP1;P1;durP2;ratioP2;P2;SDS_P1;SDS_P2;PMS_P1;PMS_P2;Temp;Humidity;BMP_temperature;BMP_pressure;BME280_temperature;BME280_humidity;BME280_pressure;Samples;Min_cycle;Max_cycle;Signal;HPM_P1;HPM_P2
2023/05/16 00:00:40;;;;;;;18.08;3.33;;;9.00;99.90;;;;;;5012826;28;20041;-62
2023/05/16 00:03:06;;;;;;;9.50;2.47;;;9.00;99.90;;;;;;5012459;28;20045;-62
2023/05/16 00:05:32;;;;;;;18.08;2.30;;;9.00;99.90;;;;;;5012713;28;20095;-63
2023/05/16 00:07:57;;;;;;;15.50;2.63;;;8.90;99.90;;;;;;5029298;28;20041;-60
2023/05/16 00:10:23;;;;;;;13.95;2.53;;;8.90;99.90;;;;;;5029002;28;20045;-62
2023/05/16 00:12:52;;;;;;;13.77;2.28;;;8.90;99.90;;;;;;5012531;28;20049;-63
2023/05/16 00:15:19;;;;;;;16.23;3.30;;;8.90;99.90;;;;;;5012957;28;20484;-61
2023/05/16 00:17:46;;;;;;;13.88;2.63;;;8.80;99.90;;;;;;4995892;28;20048;-62
2023/05/16 00:20:21;;;;;;;17.88;2.60;;;8.80;99.90;;;;;;5029141;28;20081;-61
2023/05/16 00:22:47;;;;;;;12.27;2.33;;;8.80;99.90;;;;;;5012236;28;20116;-61
2023/05/16 00:25:13;;;;;;;20.58;3.20;;;8.90;99.90;;;;;;4996178;28;20128;-62
2023/05/16 00:27:39;;;;;;;8.45;2.38;;;8.80;99.90;;;;;;5012335;28;20040;-61
2023/05/16 00:30:06;;;;;;;14.32;2.40;;;8.80;99.90;;;;;;4996065;28;20068;-62
2023/05/16 00:32:31;;;;;;;15.45;3.05;;;8.80;99.90;;;;;;5028641;28;20369;-63
2023/05/16 00:34:57;;;;;;;13.43;3.20;;;8.80;99.90;;;;;;5012560;28;20107;-62
2023/05/16 00:37:23;;;;;;;14.02;2.65;;;8.80;99.90;;;;;;5012309;28;20084;-62
2023/05/16 00:39:49;;;;;;;13.43;2.67;;;8.80;99.90;;;;;;5030076;28;20073;-61
2023/05/16 00:42:15;;;;;;;13.35;2.28;;;8.80;99.90;;;;;;4995536;28;20598;-62
2023/05/16 00:44:41;;;;;;;15.90;3.15;;;8.70;99.90;;;;;;5012342;28;20045;-63
2023/05/16 00:47:07;;;;;;;17.63;4.65;;;8.80;99.90;;;;;;5011269;28;20068;-62
2023/05/16 00:49:33;;;;;;;13.88;2.67;;;8.70;99.90;;;;;;5011875;28;20405;-61
2023/05/16 00:51:58;;;;;;;12.90;2.22;;;8.70;99.90;;;;;;4995772;28;20492;-62
2023/05/16 00:54:27;;;;;;;17.15;2.60;;;8.70;99.90;;;;;;5012204;28;20195;-62
2023/05/16 00:56:53;;;;;;;15.35;2.60;;;8.70;99.90;;;;;;4995522;28;20077;-62
2023/05/16 00:59:19;;;;;;;13.73;2.40;;;8.60;99.90;;;;;;4995706;28;20041;-61
2023/05/16 01:01:46;;;;;;;15.85;2.60;;;8.70;99.90;;;;;;5012043;28;20048;-61
2023/05/16 01:15:49;;;;;;;12.00;2.33;;;8.70;99.90;;;;;;5030869;28;20025;-60
2023/05/16 01:18:28;;;;;;;11.68;2.53;;;8.70;99.90;;;;;;4995595;28;20534;-61
2023/05/16 01:21:20;;;;;;;11.18;2.30;;;8.70;99.90;;;;;;5011692;28;20273;-62
2023/05/16 01:24:03;;;;;;;15.85;2.85;;;8.70;99.90;;;;;;5011388;28;20053;-61
2023/05/16 01:26:31;;;;;;;23.42;3.70;;;8.70;99.90;;;;;;4995642;28;20045;-63
2023/05/16 01:28:57;;;;;;;10.50;2.83;;;8.70;99.90;;;;;;5028098;28;20124;-63
2023/05/16 01:31:23;;;;;;;15.50;2.90;;;8.60;99.90;;;;;;5028138;28;20054;-62
2023/05/16 01:33:49;;;;;;;13.15;3.10;;;8.60;99.90;;;;;;4995337;28;20072;-63
2023/05/16 01:36:35;;;;;;;10.80;2.65;;;8.60;99.90;;;;;;5011565;28;20037;-63
2023/05/16 01:39:21;;;;;;;14.77;2.22;;;8.60;99.90;;;;;;5011431;28;20037;-62
2023/05/16 01:41:59;;;;;;;12.63;2.63;;;8.60;99.90;;;;;;5028070;28;20053;-62
2023/05/16 01:44:36;;;;;;;16.75;2.85;;;8.60;99.90;;;;;;5011472;28;20042;-62
2023/05/16 01:47:08;;;;;;;15.55;3.60;;;8.60;99.90;;;;;;5028120;28;20518;-63
2023/05/16 01:49:39;;;;;;;11.68;2.42;;;8.60;99.90;;;;;;5027906;28;20080;-62
2023/05/16 01:52:15;;;;;;;14.13;3.42;;;8.60;99.90;;;;;;5027560;28;20045;-62
2023/05/16 01:54:45;;;;;;;19.02;1.92;;;8.60;99.90;;;;;;5011565;28;20466;-62
2023/05/16 01:57:12;;;;;;;16.90;2.40;;;8.60;99.90;;;;;;5030133;28;20487;-62
2023/05/16 01:59:39;;;;;;;19.08;2.40;;;8.60;99.90;;;;;;5014987;28;20118;-62
2023/05/16 02:02:05;;;;;;;13.00;3.22;;;8.50;99.90;;;;;;4998772;28;20050;-63
2023/05/16 02:04:31;;;;;;;17.10;2.70;;;8.50;99.90;;;;;;5015243;28;20041;-62
2023/05/16 02:06:59;;;;;;;16.85;3.50;;;8.50;99.90;;;;;;5031434;28;20041;-63
2023/05/16 02:09:25;;;;;;;16.48;2.88;;;8.50;99.90;;;;;;5014820;28;20076;-62
2023/05/16 02:11:51;;;;;;;16.60;3.10;;;8.50;99.90;;;;;;5014852;28;20126;-61
2023/05/16 02:14:16;;;;;;;15.25;2.80;;;8.50;99.90;;;;;;4998745;28;20404;-62
2023/05/16 02:16:42;;;;;;;15.02;3.35;;;8.40;99.90;;;;;;5014781;28;20049;-61
2023/05/16 02:19:08;;;;;;;8.90;2.15;;;8.40;99.90;;;;;;5032550;28;20029;-61
2023/05/16 02:21:34;;;;;;;17.73;3.25;;;8.40;99.90;;;;;;4998436;28;20049;-62
2023/05/16 02:24:00;;;;;;;16.17;2.67;;;8.40;99.90;;;;;;5014402;28;20041;-62
2023/05/16 02:26:26;;;;;;;12.95;2.45;;;8.50;99.90;;;;;;5014693;28;20041;-62
2023/05/16 02:28:53;;;;;;;13.02;2.90;;;8.50;99.90;;;;;;5014714;28;20092;-62
2023/05/16 02:31:29;;;;;;;14.43;2.60;;;8.40;99.90;;;;;;5014444;28;20077;-62
2023/05/16 02:33:57;;;;;;;10.57;2.55;;;8.50;99.90;;;;;;5031100;28;20053;-62
2023/05/16 02:36:23;;;;;;;11.35;2.75;;;8.40;99.90;;;;;;5014923;28;20585;-62
2023/05/16 02:38:49;;;;;;;12.50;3.03;;;8.40;99.90;;;;;;5030820;28;20515;-61
2023/05/16 02:41:15;;;;;;;20.48;3.88;;;8.40;99.90;;;;;;5014444;28;20049;-61
2023/05/16 02:43:42;;;;;;;12.38;2.60;;;8.40;99.90;;;;;;5030588;28;20053;-62
2023/05/16 02:46:30;;;;;;;12.35;2.78;;;8.40;99.90;;;;;;5030797;28;20036;-61
2023/05/16 02:48:56;;;;;;;12.85;3.15;;;8.40;99.90;;;;;;4997736;28;20041;-61
2023/05/16 02:51:24;;;;;;;10.93;2.20;;;8.40;99.90;;;;;;5014218;28;20056;-62
2023/05/16 02:53:50;;;;;;;23.35;3.08;;;8.40;99.90;;;;;;4997844;28;20428;-62
2023/05/16 02:56:17;;;;;;;13.93;2.05;;;8.40;99.90;;;;;;4998205;28;20412;-60
2023/05/16 02:58:45;;;;;;;10.57;2.30;;;8.40;99.90;;;;;;5031906;28;20048;-62
2023/05/16 03:01:11;;;;;;;10.60;3.17;;;8.40;99.90;;;;;;5014415;28;20056;-62
2023/05/16 03:03:37;;;;;;;11.68;2.85;;;8.40;99.90;;;;;;5013691;28;20079;-63
2023/05/16 03:06:03;;;;;;;16.75;2.40;;;8.40;99.90;;;;;;4997490;28;20124;-61
2023/05/16 03:08:28;;;;;;;9.00;2.03;;;8.40;99.90;;;;;;5013877;28;20048;-63
2023/05/16 03:10:54;;;;;;;9.20;2.47;;;8.40;99.90;;;;;;5013623;28;20052;-63
2023/05/16 03:13:21;;;;;;;12.95;2.22;;;8.40;99.90;;;;;;5013782;28;20174;-62
2023/05/16 03:15:47;;;;;;;10.60;2.78;;;8.40;99.90;;;;;;5014002;28;20532;-61
2023/05/16 03:18:13;;;;;;;12.57;2.63;;;8.40;99.90;;;;;;5013714;28;20500;-61
2023/05/16 03:20:39;;;;;;;14.40;2.60;;;8.40;99.90;;;;;;5013463;28;20075;-62
2023/05/16 03:23:07;;;;;;;12.73;2.15;;;8.40;99.90;;;;;;5013658;28;20051;-63
2023/05/16 03:25:36;;;;;;;16.20;2.10;;;8.40;99.90;;;;;;5013415;28;20122;-62
2023/05/16 03:28:06;;;;;;;11.23;2.50;;;8.40;99.90;;;;;;5029934;28;20037;-62
2023/05/16 03:30:33;;;;;;;9.63;2.22;;;8.40;99.90;;;;;;4997163;28;20045;-62
2023/05/16 03:32:59;;;;;;;8.70;2.20;;;8.40;99.90;;;;;;4997202;28;20056;-62
2023/05/16 03:35:26;;;;;;;14.18;3.03;;;8.40;99.90;;;;;;5085029;22;20119;-59
2023/05/16 03:37:51;;;;;;;14.10;2.67;;;8.40;99.90;;;;;;5067563;28;20063;-60
2023/05/16 03:40:17;;;;;;;12.95;3.30;;;8.40;99.90;;;;;;5066264;28;20047;-59
2023/05/16 03:42:43;;;;;;;16.00;3.78;;;8.40;99.90;;;;;;5041647;28;20029;-58
2023/05/16 03:45:11;;;;;;;13.77;2.47;;;8.50;99.90;;;;;;5051174;28;20395;-58
2023/05/16 03:47:36;;;;;;;11.43;2.35;;;8.40;99.90;;;;;;5055357;22;20469;-58
2023/05/16 03:50:02;;;;;;;12.93;2.00;;;8.50;99.90;;;;;;4992303;28;20060;-57
2023/05/16 03:52:28;;;;;;;14.95;3.75;;;8.40;99.90;;;;;;5017515;28;20041;-56
2023/05/16 03:54:54;;;;;;;9.05;2.10;;;8.40;99.90;;;;;;5011239;28;20045;-58
2023/05/16 03:57:19;;;;;;;8.35;2.00;;;8.40;99.90;;;;;;5010734;28;20084;-58
2023/05/16 03:59:45;;;;;;;9.55;2.50;;;8.40;99.90;;;;;;5007059;28;20037;-58
2023/05/16 04:02:11;;;;;;;9.68;2.53;;;8.40;99.90;;;;;;5010132;28;20054;-57
2023/05/16 04:04:37;;;;;;;10.90;2.38;;;8.40;99.90;;;;;;5010563;28;20087;-57
2023/05/16 04:07:02;;;;;;;11.13;2.20;;;8.40;99.90;;;;;;5024422;28;20535;-58
2023/05/16 04:09:28;;;;;;;13.38;2.58;;;8.40;99.90;;;;;;5006115;28;21165;-58
2023/05/16 04:11:57;;;;;;;11.43;1.90;;;8.40;99.90;;;;;;5016999;28;20037;-58
2023/05/16 04:14:23;;;;;;;16.80;2.17;;;8.40;99.90;;;;;;4997469;28;20049;-61
2023/05/16 04:16:49;;;;;;;15.77;2.20;;;8.50;99.90;;;;;;5009778;28;20152;-58
2023/05/16 04:19:15;;;;;;;15.30;2.40;;;8.50;99.90;;;;;;5002269;28;20106;-58
2023/05/16 04:21:40;;;;;;;17.60;2.50;;;8.50;99.90;;;;;;5003330;28;20322;-57
2023/05/16 04:24:07;;;;;;;14.15;2.53;;;8.50;99.90;;;;;;5009085;28;20037;-58
2023/05/16 04:26:32;;;;;;;14.32;2.28;;;8.40;99.90;;;;;;4989023;28;20033;-58
2023/05/16 04:28:58;;;;;;;12.45;2.13;;;8.40;99.90;;;;;;5018395;28;20517;-58
2023/05/16 04:31:27;;;;;;;10.52;2.40;;;8.50;99.90;;;;;;4994352;28;20046;-58
2023/05/16 04:33:53;;;;;;;9.00;1.65;;;8.50;99.90;;;;;;5008767;28;20088;-58
2023/05/16 04:36:20;;;;;;;16.45;2.10;;;8.50;99.90;;;;;;5006485;28;20264;-57
2023/05/16 04:38:46;;;;;;;13.43;2.10;;;8.50;99.90;;;;;;5010340;28;20035;-56
2023/05/16 04:41:12;;;;;;;9.20;1.85;;;8.50;99.90;;;;;;4999408;28;20125;-57
2023/05/16 04:43:38;;;;;;;10.05;2.63;;;8.50;99.90;;;;;;5009546;28;20036;-58
2023/05/16 04:46:06;;;;;;;9.55;2.60;;;8.50;99.90;;;;;;5029783;28;20029;-58
2023/05/16 04:48:32;;;;;;;11.75;2.20;;;8.50;99.90;;;;;;5004640;28;20390;-58
2023/05/16 04:50:58;;;;;;;14.05;3.13;;;8.60;99.90;;;;;;5011617;28;20525;-57
2023/05/16 04:53:24;;;;;;;12.93;2.20;;;8.60;99.90;;;;;;5015973;28;20124;-58
2023/05/16 04:55:50;;;;;;;8.52;2.00;;;8.70;99.90;;;;;;4986322;28;20120;-57
2023/05/16 04:58:15;;;;;;;13.43;2.20;;;8.70;99.90;;;;;;5003379;28;20191;-57
2023/05/16 05:00:41;;;;;;;13.13;2.25;;;8.80;99.90;;;;;;4990222;28;20431;-58
2023/05/16 05:03:07;;;;;;;10.02;2.50;;;8.80;99.90;;;;;;5004795;28;20476;-58
2023/05/16 05:05:33;;;;;;;8.40;2.10;;;8.90;99.90;;;;;;5029926;28;20029;-58
2023/05/16 05:08:00;;;;;;;8.98;2.00;;;8.90;99.90;;;;;;5039238;28;20037;-57
2023/05/16 05:10:30;;;;;;;9.48;1.65;;;9.00;99.90;;;;;;5007681;28;20400;-58
2023/05/16 05:12:56;;;;;;;9.75;2.03;;;9.00;99.90;;;;;;5016155;28;20041;-59
2023/05/16 05:15:22;;;;;;;15.32;1.90;;;9.20;99.90;;;;;;5005692;28;20037;-59
2023/05/16 05:17:47;;;;;;;9.95;1.70;;;9.20;99.90;;;;;;5011490;28;20384;-58
2023/05/16 05:20:13;;;;;;;10.48;1.83;;;9.30;99.90;;;;;;5027779;28;20038;-57
2023/05/16 05:22:39;;;;;;;11.90;1.88;;;9.40;99.90;;;;;;4987111;28;20038;-58
2023/05/16 05:25:05;;;;;;;8.77;1.65;;;9.40;99.90;;;;;;4995724;28;21587;-58
2023/05/16 05:27:31;;;;;;;9.73;1.67;;;9.40;99.90;;;;;;5002872;28;20061;-58
2023/05/16 05:29:56;;;;;;;8.05;1.92;;;9.50;99.90;;;;;;5006827;28;20421;-58
2023/05/16 05:32:22;;;;;;;8.73;1.45;;;9.60;99.90;;;;;;4988781;28;20140;-59
2023/05/16 05:34:48;;;;;;;13.68;1.98;;;9.60;99.90;;;;;;5010924;28;20053;-59
2023/05/16 05:37:14;;;;;;;10.18;1.58;;;9.70;99.90;;;;;;4991932;28;20045;-58
2023/05/16 05:39:40;;;;;;;7.82;1.35;;;9.70;99.90;;;;;;4990648;28;20037;-57
2023/05/16 05:42:06;;;;;;;11.90;2.65;;;9.80;99.90;;;;;;5014278;28;20041;-58
2023/05/16 05:44:32;;;;;;;9.82;1.50;;;9.80;99.90;;;;;;5012275;28;20408;-58
2023/05/16 05:46:58;;;;;;;9.57;1.80;;;9.90;99.90;;;;;;5021344;28;20456;-59
2023/05/16 05:49:25;;;;;;;10.45;1.90;;;9.90;99.90;;;;;;5008214;28;20138;-58
2023/05/16 05:51:51;;;;;;;8.40;2.03;;;9.80;99.90;;;;;;4992935;28;20076;-58
2023/05/16 05:54:20;;;;;;;11.73;1.60;;;9.90;99.90;;;;;;5017114;28;20056;-58
2023/05/16 05:56:46;;;;;;;9.75;1.52;;;9.90;99.90;;;;;;5013004;28;20130;-58
2023/05/16 05:59:12;;;;;;;10.43;1.90;;;9.90;99.90;;;;;;5014446;28;20068;-57
2023/05/16 06:01:38;;;;;;;7.13;1.33;;;9.80;99.90;;;;;;5007533;28;20552;-58
2023/05/16 06:04:04;;;;;;;6.43;1.98;;;9.90;99.90;;;;;;5003457;28;20422;-58
2023/05/16 06:06:30;;;;;;;9.60;2.00;;;9.90;99.90;;;;;;5012542;28;20084;-58
2023/05/16 06:08:57;;;;;;;9.15;1.55;;;10.00;99.90;;;;;;4991602;28;20152;-58
2023/05/16 06:11:24;;;;;;;9.23;2.40;;;10.00;99.90;;;;;;5032158;28;20034;-58
2023/05/16 06:13:53;;;;;;;9.57;1.75;;;10.10;99.90;;;;;;5010989;28;20045;-58
2023/05/16 06:16:19;;;;;;;8.13;1.35;;;10.20;99.90;;;;;;4994232;28;20042;-58
2023/05/16 06:18:44;;;;;;;6.95;1.27;;;10.30;99.90;;;;;;5003441;28;20044;-59
2023/05/16 06:21:10;;;;;;;6.88;1.20;;;10.30;99.90;;;;;;5012360;28;20050;-58
2023/05/16 06:23:36;;;;;;;7.97;1.55;;;10.50;99.90;;;;;;5006721;28;20038;-58
2023/05/16 06:26:02;;;;;;;9.27;1.73;;;10.70;99.90;;;;;;5013274;28;20437;-58
2023/05/16 06:28:28;;;;;;;8.85;1.45;;;10.80;99.90;;;;;;5004278;28;20041;-58
2023/05/16 06:30:54;;;;;;;8.27;1.95;;;10.80;99.90;;;;;;4999968;28;20048;-58
2023/05/16 06:33:20;;;;;;;5.88;1.27;;;10.60;99.90;;;;;;5010502;28;20030;-58
2023/05/16 06:35:47;;;;;;;8.60;2.10;;;10.60;99.90;;;;;;5011578;28;20551;-58
2023/05/16 06:38:14;;;;;;;9.02;1.83;;;10.50;99.90;;;;;;4986706;28;20048;-58
2023/05/16 06:40:39;;;;;;;11.05;1.55;;;10.50;99.90;;;;;;4985767;28;20049;-58
2023/05/16 06:43:05;;;;;;;9.55;2.17;;;10.60;99.90;;;;;;4993232;28;20041;-58
2023/05/16 06:45:31;;;;;;;12.68;1.95;;;10.70;99.90;;;;;;4997567;28;20065;-58
2023/05/16 06:47:57;;;;;;;10.45;2.00;;;10.80;99.90;;;;;;4990379;28;20069;-58
2023/05/16 06:50:23;;;;;;;10.20;1.60;;;10.80;99.90;;;;;;4993976;28;20542;-58
2023/05/16 06:52:48;;;;;;;11.65;1.80;;;10.80;99.90;;;;;;5003896;28;20435;-56
2023/05/16 06:55:14;;;;;;;10.10;1.58;;;10.80;99.90;;;;;;4997095;28;20045;-58
2023/05/16 06:57:40;;;;;;;12.63;2.08;;;10.70;99.90;;;;;;5003271;28;20037;-58
2023/05/16 07:00:07;;;;;;;8.07;2.45;;;10.70;99.90;;;;;;4979363;28;20029;-58
2023/05/16 07:02:33;;;;;;;19.27;2.55;;;10.60;99.90;;;;;;5011416;28;20688;-58
2023/05/16 07:04:59;;;;;;;18.75;3.30;;;10.50;99.90;;;;;;5020915;28;20042;-58
2023/05/16 07:07:24;;;;;;;17.90;2.42;;;10.40;99.90;;;;;;4990586;28;20034;-58
2023/05/16 07:09:50;;;;;;;14.63;1.90;;;10.30;99.90;;;;;;5024571;28;20076;-58
2023/05/16 07:12:16;;;;;;;11.85;2.47;;;10.40;99.90;;;;;;5011696;28;20080;-58
2023/05/16 07:14:42;;;;;;;13.50;2.22;;;10.30;99.90;;;;;;5002022;28;20037;-58
2023/05/16 07:17:08;;;;;;;8.82;1.90;;;10.50;99.90;;;;;;5009306;28;20040;-57
2023/05/16 07:19:34;;;;;;;13.15;3.15;;;10.70;99.90;;;;;;4985588;28;20044;-58
2023/05/16 07:22:00;;;;;;;10.50;2.00;;;10.90;99.90;;;;;;5004451;28;20045;-58
2023/05/16 07:24:26;;;;;;;9.15;1.75;;;11.10;99.90;;;;;;4992471;28;20045;-58
2023/05/16 07:26:52;;;;;;;16.58;2.90;;;11.20;99.90;;;;;;4988107;28;20144;-58
2023/05/16 07:29:17;;;;;;;8.38;2.17;;;11.20;99.90;;;;;;5000423;28;20044;-58
2023/05/16 07:31:43;;;;;;;12.25;1.85;;;11.10;99.90;;;;;;5020685;28;20075;-58
2023/05/16 07:34:10;;;;;;;9.60;1.95;;;11.00;99.90;;;;;;5009211;28;20123;-58
2023/05/16 07:36:36;;;;;;;11.52;2.13;;;10.90;99.90;;;;;;5006870;28;20041;-58
2023/05/16 07:39:02;;;;;;;15.25;2.50;;;10.70;99.90;;;;;;4987727;28;20037;-59
2023/05/16 07:41:30;;;;;;;8.18;2.38;;;10.70;99.90;;;;;;5028753;28;20071;-58
2023/05/16 07:43:56;;;;;;;17.35;2.60;;;10.70;99.90;;;;;;5004825;28;20149;-58
2023/05/16 07:46:22;;;;;;;9.75;1.65;;;10.90;99.90;;;;;;4990101;28;20046;-58
2023/05/16 07:48:48;;;;;;;9.57;1.85;;;11.20;99.90;;;;;;4987939;28;20069;-58
2023/05/16 07:51:13;;;;;;;10.05;1.85;;;11.40;99.90;;;;;;5012521;28;20052;-58
2023/05/16 07:53:40;;;;;;;9.73;1.50;;;11.30;99.90;;;;;;5010443;28;20037;-58
2023/05/16 07:56:06;;;;;;;12.43;2.35;;;11.20;99.90;;;;;;5006527;28;20041;-59
2023/05/16 07:58:32;;;;;;;11.15;1.90;;;11.10;99.90;;;;;;4991269;28;20068;-59
2023/05/16 08:00:58;;;;;;;25.83;3.15;;;10.90;99.90;;;;;;4997628;28;20049;-58
2023/05/16 08:03:24;;;;;;;12.48;2.22;;;10.80;99.90;;;;;;4999742;28;20482;-58
2023/05/16 08:05:50;;;;;;;9.57;2.50;;;10.70;99.90;;;;;;5024629;28;20041;-59
2023/05/16 08:08:16;;;;;;;9.70;1.90;;;10.80;99.90;;;;;;5007843;28;20033;-57
2023/05/16 08:10:42;;;;;;;6.47;1.70;;;11.00;99.90;;;;;;5005917;28;20155;-58
2023/05/16 08:13:08;;;;;;;13.00;2.42;;;11.30;99.90;;;;;;4993339;28;20129;-59
2023/05/16 08:15:34;;;;;;;12.20;2.42;;;11.60;99.90;;;;;;5005087;28;20056;-59
2023/05/16 08:18:00;;;;;;;11.63;1.92;;;11.90;99.90;;;;;;4992706;28;20511;-58
2023/05/16 08:20:26;;;;;;;10.48;1.98;;;12.10;99.90;;;;;;5009275;28;20029;-57
2023/05/16 08:22:52;;;;;;;11.93;1.73;;;12.40;99.90;;;;;;5004534;28;20037;-58
2023/05/16 08:25:18;;;;;;;7.47;1.70;;;12.60;99.90;;;;;;4993816;28;20040;-58
2023/05/16 08:27:45;;;;;;;16.65;2.35;;;12.80;99.90;;;;;;5006811;28;20029;-58
2023/05/16 08:30:11;;;;;;;9.52;1.88;;;13.00;99.90;;;;;;4977342;28;20037;-58
2023/05/16 08:32:37;;;;;;;12.57;1.80;;;12.80;99.90;;;;;;5014420;28;20041;-58
2023/05/16 08:35:03;;;;;;;12.98;1.98;;;12.40;99.90;;;;;;4991676;28;20333;-59
2023/05/16 08:37:29;;;;;;;9.25;1.80;;;12.10;99.90;;;;;;5003864;28;20437;-58
2023/05/16 08:39:55;;;;;;;13.48;2.60;;;12.00;99.90;;;;;;5003138;28;20128;-57
2023/05/16 08:42:21;;;;;;;11.27;2.15;;;12.00;99.90;;;;;;5005246;28;20077;-58
2023/05/16 08:44:46;;;;;;;11.45;2.97;;;11.90;99.90;;;;;;5016909;28;20033;-58
2023/05/16 08:47:18;;;;;;;10.05;2.17;;;11.80;99.90;;;;;;4978229;28;20099;-57
2023/05/16 08:49:47;;;;;;;8.88;1.80;;;11.80;99.90;;;;;;5008459;28;20416;-58
2023/05/16 08:52:15;;;;;;;11.63;2.28;;;12.00;99.90;;;;;;5010860;28;20484;-58
2023/05/16 08:54:42;;;;;;;10.32;1.75;;;12.20;99.90;;;;;;4991810;28;20121;-58
2023/05/16 08:57:08;;;;;;;14.13;1.98;;;12.40;99.90;;;;;;4988295;28;20164;-59
2023/05/16 08:59:34;;;;;;;10.27;1.80;;;12.60;99.90;;;;;;5006112;28;20038;-58
2023/05/16 09:02:00;;;;;;;8.57;1.70;;;12.60;99.90;;;;;;5005959;28;20048;-58
2023/05/16 09:04:26;;;;;;;12.38;1.77;;;12.70;99.90;;;;;;4996724;28;20037;-58
2023/05/16 09:06:52;;;;;;;12.98;2.40;;;12.90;99.90;;;;;;4993402;28;20040;-58
2023/05/16 09:09:18;;;;;;;6.50;1.45;;;13.00;99.90;;;;;;5005694;28;20454;-59
2023/05/16 09:11:44;;;;;;;10.70;2.05;;;12.90;99.90;;;;;;5009790;28;20570;-59
2023/05/16 09:14:10;;;;;;;13.07;2.10;;;12.70;99.90;;;;;;4994627;28;20041;-59
2023/05/16 09:16:36;;;;;;;6.95;1.90;;;12.90;99.90;;;;;;5011472;28;20049;-59
2023/05/16 09:19:03;;;;;;;9.45;1.67;;;12.90;99.90;;;;;;5003651;28;20049;-59
2023/05/16 09:21:33;;;;;;;11.07;2.10;;;13.00;99.90;;;;;;5009843;28;20087;-59
2023/05/16 09:24:07;;;;;;;10.32;1.50;;;13.00;99.90;;;;;;4992626;28;20354;-59
2023/05/16 09:26:34;;;;;;;8.27;1.52;;;13.10;99.90;;;;;;5006434;28;20044;-59
2023/05/16 09:29:00;;;;;;;10.73;2.30;;;13.00;99.90;;;;;;5006690;28;20393;-59
2023/05/16 09:31:31;;;;;;;6.90;1.25;;;12.80;99.90;;;;;;5009997;28;20052;-58
2023/05/16 09:33:57;;;;;;;7.70;1.45;;;13.00;99.90;;;;;;5003411;28;20570;-59
2023/05/16 09:36:22;;;;;;;9.35;1.52;;;13.20;99.90;;;;;;5001167;28;20241;-59
2023/05/16 09:38:52;;;;;;;5.10;1.40;;;13.40;99.90;;;;;;5006951;28;20038;-58
2023/05/16 09:41:18;;;;;;;7.28;1.80;;;12.80;99.20;;;;;;4992308;28;20179;-58
2023/05/16 09:43:44;;;;;;;7.20;1.30;;;12.90;99.90;;;;;;5001271;28;20136;-59
2023/05/16 09:46:14;;;;;;;9.43;1.60;;;13.20;99.90;;;;;;5001927;28;20061;-58
2023/05/16 09:48:47;;;;;;;7.28;2.03;;;13.50;99.40;;;;;;5014333;28;20077;-59
2023/05/16 09:51:13;;;;;;;12.05;1.20;;;13.50;98.80;;;;;;5000178;28;20046;-58
2023/05/16 09:53:40;;;;;;;6.60;1.45;;;13.30;99.30;;;;;;5008738;28;20115;-59
2023/05/16 09:56:10;;;;;;;10.10;1.73;;;13.10;99.40;;;;;;5008575;28;20080;-58
2023/05/16 09:58:38;;;;;;;9.07;1.85;;;12.80;99.10;;;;;;5005229;28;20053;-58
2023/05/16 10:01:06;;;;;;;9.02;1.70;;;12.70;99.70;;;;;;4991368;28;20064;-59
2023/05/16 10:03:34;;;;;;;10.13;1.92;;;12.70;99.90;;;;;;4975890;28;20065;-59
2023/05/16 10:06:01;;;;;;;9.35;1.67;;;12.90;99.70;;;;;;5015871;28;20041;-58
2023/05/16 10:08:27;;;;;;;8.73;1.73;;;13.30;99.90;;;;;;5001348;28;20077;-58
2023/05/16 10:10:56;;;;;;;8.48;2.00;;;13.30;99.80;;;;;;4988462;28;20339;-59
2023/05/16 10:13:29;;;;;;;9.40;1.80;;;13.30;99.90;;;;;;5027170;28;20041;-59
2023/05/16 10:15:57;;;;;;;9.05;1.52;;;13.00;99.90;;;;;;5010828;28;20042;-57
2023/05/16 10:18:28;;;;;;;10.18;1.85;;;13.10;99.90;;;;;;4992667;28;20038;-59
2023/05/16 10:20:57;;;;;;;9.52;1.63;;;13.10;99.90;;;;;;5007606;28;20480;-58
2023/05/16 10:23:25;;;;;;;8.55;1.65;;;13.20;99.90;;;;;;5014078;28;20037;-58
2023/05/16 10:25:51;;;;;;;12.68;1.95;;;13.20;99.90;;;;;;5011500;28;20033;-58
2023/05/16 10:28:17;;;;;;;7.10;1.20;;;13.20;99.80;;;;;;5029246;28;20124;-59
2023/05/16 10:30:46;;;;;;;8.60;1.55;;;13.20;99.20;;;;;;5011079;28;20121;-59
2023/05/16 10:33:17;;;;;;;16.50;2.22;;;13.10;98.40;;;;;;5020267;28;20048;-58
2023/05/16 10:35:43;;;;;;;10.27;1.67;;;13.00;99.60;;;;;;5007615;28;20037;-56
2023/05/16 10:38:11;;;;;;;6.80;1.50;;;13.10;99.90;;;;;;5006356;28;20045;-58
2023/05/16 10:40:38;;;;;;;10.00;1.95;;;13.00;99.90;;;;;;4986684;28;20038;-59
2023/05/16 10:43:07;;;;;;;11.00;2.30;;;13.00;99.90;;;;;;5003644;28;20037;-58
2023/05/16 10:45:33;;;;;;;11.40;1.58;;;13.20;99.90;;;;;;5010081;28;20480;-58
2023/05/16 10:48:04;;;;;;;6.28;1.70;;;13.30;99.90;;;;;;5006322;28;20043;-58
2023/05/16 10:50:43;;;;;;;8.68;1.80;;;13.20;99.90;;;;;;5006783;28;20061;-59
2023/05/16 10:53:32;;;;;;;10.25;2.05;;;13.20;99.90;;;;;;5005982;28;20034;-57
2023/05/16 10:55:58;;;;;;;9.25;2.03;;;13.20;99.90;;;;;;5003730;28;20112;-61
2023/05/16 10:58:30;;;;;;;8.70;1.83;;;12.90;99.90;;;;;;5001487;28;20167;-60
2023/05/16 11:01:15;;;;;;;7.10;1.70;;;12.80;99.90;;;;;;5002724;28;20396;-58
2023/05/16 11:03:56;;;;;;;8.68;2.15;;;12.70;99.90;;;;;;5003610;28;20389;-57
2023/05/16 11:06:31;;;;;;;7.13;1.98;;;12.40;99.90;;;;;;5008936;28;20077;-57
2023/05/16 11:08:57;;;;;;;9.60;1.80;;;12.20;99.90;;;;;;4999370;28;20118;-58
2023/05/16 11:11:46;;;;;;;8.75;1.88;;;12.30;99.90;;;;;;5000086;28;20456;-59
2023/05/16 11:14:28;;;;;;;9.10;1.92;;;12.30;99.90;;;;;;4989195;28;20497;-58
2023/05/16 11:17:15;;;;;;;5.97;1.63;;;12.40;99.90;;;;;;4982169;28;20099;-58
2023/05/16 11:19:42;;;;;;;11.73;3.00;;;12.80;99.90;;;;;;5007067;28;20508;-60
2023/05/16 11:22:20;;;;;;;7.82;2.08;;;13.20;99.90;;;;;;5007136;28;20029;-58
2023/05/16 11:24:58;;;;;;;8.13;2.15;;;13.20;99.90;;;;;;5005414;28;20041;-57
2023/05/16 11:27:25;;;;;;;7.25;1.88;;;13.50;99.90;;;;;;5006402;28;20049;-58
2023/05/16 11:29:52;;;;;;;5.40;1.95;;;13.50;99.90;;;;;;5005509;28;20103;-60
2023/05/16 11:32:22;;;;;;;10.43;2.13;;;13.30;99.90;;;;;;5010214;28;20091;-58
2023/05/16 11:34:52;;;;;;;6.80;1.85;;;13.20;99.90;;;;;;5006975;28;20128;-60
2023/05/16 11:37:19;;;;;;;8.23;1.90;;;13.70;99.90;;;;;;5000580;28;20045;-57
2023/05/16 11:39:45;;;;;;;7.90;2.20;;;13.90;99.50;;;;;;5003832;28;20463;-59
2023/05/16 11:42:12;;;;;;;7.80;2.20;;;13.70;99.60;;;;;;5003286;28;20085;-60
2023/05/16 11:44:39;;;;;;;8.60;2.67;;;13.90;99.90;;;;;;5003330;28;20033;-60
2023/05/16 11:47:06;;;;;;;9.43;3.22;;;13.90;99.90;;;;;;5017562;28;20125;-59
2023/05/16 11:49:34;;;;;;;10.38;2.80;;;13.80;99.90;;;;;;5010174;28;20049;-59
2023/05/16 11:52:00;;;;;;;7.40;2.70;;;13.90;99.90;;;;;;5005093;28;20129;-58
2023/05/16 11:54:26;;;;;;;8.02;2.47;;;13.80;99.30;;;;;;4994861;28;20049;-59
2023/05/16 11:56:55;;;;;;;13.23;3.90;;;14.10;99.50;;;;;;5023497;28;20057;-59
2023/05/16 11:59:21;;;;;;;10.32;2.70;;;14.10;98.90;;;;;;5003884;28;20042;-59
2023/05/16 12:01:49;;;;;;;6.60;2.78;;;13.80;99.00;;;;;;5001779;28;20038;-57
2023/05/16 12:04:16;;;;;;;10.52;2.45;;;13.50;99.40;;;;;;5006640;28;20179;-59
2023/05/16 12:06:47;;;;;;;9.50;2.88;;;13.60;99.00;;;;;;4990649;28;20089;-59
2023/05/16 12:09:14;;;;;;;11.52;3.47;;;13.70;99.40;;;;;;4992212;28;20051;-59
2023/05/16 12:11:41;;;;;;;9.82;2.58;;;14.00;99.20;;;;;;5003676;28;20407;-59
2023/05/16 12:14:11;;;;;;;11.40;2.30;;;14.30;98.50;;;;;;5006216;28;20461;-60
2023/05/16 12:16:38;;;;;;;10.95;2.63;;;14.50;97.80;;;;;;5002527;28;20108;-59
2023/05/16 12:19:05;;;;;;;8.85;2.70;;;14.80;97.30;;;;;;4995871;28;20219;-57
2023/05/16 12:21:31;;;;;;;8.55;2.72;;;14.60;97.40;;;;;;4988952;28;20413;-60
2023/05/16 12:23:58;;;;;;;8.30;2.70;;;14.70;97.10;;;;;;4984293;28;20049;-60
2023/05/16 12:26:25;;;;;;;8.68;3.00;;;14.60;96.90;;;;;;5005301;28;20544;-57
2023/05/16 12:28:59;;;;;;;9.45;3.50;;;13.90;95.00;;;;;;5001710;28;20575;-58
2023/05/16 12:31:24;;;;;;;8.35;4.05;;;13.60;96.20;;;;;;4997049;28;20231;-59
2023/05/16 12:33:53;;;;;;;10.40;3.35;;;13.60;96.20;;;;;;4985465;28;20133;-59
2023/05/16 12:36:19;;;;;;;5.38;2.70;;;13.90;96.90;;;;;;5002729;28;20065;-61
2023/05/16 12:38:46;;;;;;;7.30;2.63;;;13.80;96.40;;;;;;5021814;28;20384;-59
2023/05/16 12:41:21;;;;;;;9.85;2.80;;;13.90;97.20;;;;;;5024517;28;20040;-57
2023/05/16 12:43:48;;;;;;;6.15;2.45;;;13.90;96.80;;;;;;4989017;28;20041;-59
2023/05/16 12:46:14;;;;;;;9.90;2.70;;;14.10;96.60;;;;;;5008823;28;20042;-58
2023/05/16 12:48:41;;;;;;;8.27;2.40;;;14.10;96.70;;;;;;4989994;28;20124;-61
2023/05/16 12:51:15;;;;;;;10.93;2.83;;;14.10;96.90;;;;;;5000947;28;20053;-62
2023/05/16 12:53:42;;;;;;;9.15;2.72;;;14.10;96.60;;;;;;4987735;28;20037;-61
2023/05/16 12:56:09;;;;;;;7.25;2.20;;;14.00;97.30;;;;;;5003266;28;20046;-61
2023/05/16 12:58:36;;;;;;;8.65;2.67;;;13.90;97.40;;;;;;5003140;28;20068;-61